PWSweather.com
Personal Weather Stations
Station Observations
IFREISTO2
Freiston, FreistonGB PE22 0QJ

FreistonFreistonGB PE22 0QJ

Lat: 52.964, Lon: 0.041

Elevation: 16

Station Type: Fine Offset

http://www.midlifedad.me.uk/weather

Latest ConditionsUpdated 2:25:00 AM GMT Saturday, Feb 24, 2018
Currently Today's Max Today's Min Today's Average
Temperature 35.8°F2.1°C 35.8°F2.1°C 35.8°F2.1°C 35.8°F2.1°C
Dew Point 25.5°F-3.6°C 25.5°F-3.6°C 25.5°F-3.6°C 25.5°F-3.6°C
Winds 8.1 mph ESE13.0 kmh ESE 9.9 mph ESE15.9 kmh ESE - 8.7 mph 14.0 kmh
Wind Gusts 15.2 mph24.5 kmh 22.1 mph35.6 kmh - -
Humidity 66% 66% 66% 66%
Pressure 30.16 in1021.3 mb 30.17 in1021.7 mb 30.16 in1021.3 mb -
Hour Temp Dew Point Humidity Winds Wind Gusts Pressure Precip Precip Rate Daily Precip Total
02:25 AM 35.8°F2.1°C 25.5°F-3.6°C 66% 8.1 mph ESE13.0 kmh ESE 15.2 mph24.5 kmh 30.16 in1021.3 mb 0.00 in0.0 mm 0.00 in0.0 mm 0.00 in0.0 mm
02:20 AM 35.8°F2.1°C 25.5°F-3.6°C 66% 7.6 mph ENE12.2 kmh ENE 13.6 mph21.9 kmh 30.16 in1021.3 mb 0.00 in0.0 mm 0.00 in0.0 mm 0.00 in0.0 mm
02:15 AM 35.8°F2.1°C 25.5°F-3.6°C 66% 7.7 mph NE12.4 kmh NE 13.6 mph21.9 kmh 30.16 in1021.3 mb 0.00 in0.0 mm 0.00 in0.0 mm 0.00 in0.0 mm
02:10 AM 35.8°F2.1°C 25.5°F-3.6°C 66% 8.1 mph ESE13.0 kmh ESE 14.5 mph23.3 kmh 30.17 in1021.7 mb 0.00 in0.0 mm 0.00 in0.0 mm 0.00 in0.0 mm
02:05 AM 35.8°F2.1°C 25.5°F-3.6°C 66% 8.7 mph SSE14.0 kmh SSE 14.5 mph23.3 kmh 30.17 in1021.7 mb 0.00 in0.0 mm 0.00 in0.0 mm 0.00 in0.0 mm
02:00 AM 35.8°F2.1°C 25.5°F-3.6°C 66% 7.9 mph S12.7 kmh S 14.5 mph23.3 kmh 30.16 in1021.3 mb 0.00 in0.0 mm 0.00 in0.0 mm 0.00 in0.0 mm
01:55 AM 35.8°F2.1°C 25.5°F-3.6°C 66% 7.6 mph SSE12.2 kmh SSE 12.1 mph19.5 kmh 30.16 in1021.3 mb 0.00 in0.0 mm 0.00 in0.0 mm 0.00 in0.0 mm
01:50 AM 35.8°F2.1°C 25.5°F-3.6°C 66% 8.2 mph SE13.2 kmh SE 13.6 mph21.9 kmh 30.17 in1021.7 mb 0.00 in0.0 mm 0.00 in0.0 mm 0.00 in0.0 mm
01:45 AM 35.8°F2.1°C 25.5°F-3.6°C 66% 7.8 mph ESE12.6 kmh ESE 13.6 mph21.9 kmh 30.17 in1021.7 mb 0.00 in0.0 mm 0.00 in0.0 mm 0.00 in0.0 mm
01:40 AM 35.8°F2.1°C 25.5°F-3.6°C 66% 7.4 mph ESE11.9 kmh ESE 12.1 mph19.5 kmh 30.16 in1021.3 mb 0.00 in0.0 mm 0.00 in0.0 mm 0.00 in0.0 mm
01:35 AM 35.8°F2.1°C 25.5°F-3.6°C 66% 7.6 mph ENE12.2 kmh ENE 14.5 mph23.3 kmh 30.16 in1021.3 mb 0.00 in0.0 mm 0.00 in0.0 mm 0.00 in0.0 mm
01:30 AM 35.8°F2.1°C 25.5°F-3.6°C 66% 8.4 mph ESE13.5 kmh ESE 15.2 mph24.5 kmh 30.16 in1021.3 mb 0.00 in0.0 mm 0.00 in0.0 mm 0.00 in0.0 mm
01:25 AM 35.8°F2.1°C 25.5°F-3.6°C 66% 8.8 mph SE14.2 kmh SE 15.2 mph24.5 kmh 30.16 in1021.3 mb 0.00 in0.0 mm 0.00 in0.0 mm 0.00 in0.0 mm
01:20 AM 35.8°F2.1°C 25.5°F-3.6°C 66% 9.5 mph ESE15.3 kmh ESE 14.5 mph23.3 kmh 30.16 in1021.3 mb 0.00 in0.0 mm 0.00 in0.0 mm 0.00 in0.0 mm
01:15 AM 35.8°F2.1°C 25.5°F-3.6°C 66% 9.2 mph ENE14.8 kmh ENE 14.5 mph23.3 kmh 30.16 in1021.3 mb 0.00 in0.0 mm 0.00 in0.0 mm 0.00 in0.0 mm
01:10 AM 35.8°F2.1°C 25.5°F-3.6°C 66% 8.8 mph NNE14.2 kmh NNE 14.5 mph23.3 kmh 30.16 in1021.3 mb 0.00 in0.0 mm 0.00 in0.0 mm 0.00 in0.0 mm
01:05 AM 35.8°F2.1°C 25.5°F-3.6°C 66% 9.4 mph NE15.1 kmh NE 14.5 mph23.3 kmh 30.16 in1021.3 mb 0.00 in0.0 mm 0.00 in0.0 mm 0.00 in0.0 mm
01:00 AM 35.8°F2.1°C 25.5°F-3.6°C 66% 9.3 mph S15.0 kmh S 14.5 mph23.3 kmh 30.16 in1021.3 mb 0.00 in0.0 mm 0.00 in0.0 mm 0.00 in0.0 mm
12:55 AM 35.8°F2.1°C 25.5°F-3.6°C 66% 8.9 mph S14.3 kmh S 15.9 mph25.6 kmh 30.16 in1021.3 mb 0.00 in0.0 mm 0.00 in0.0 mm 0.00 in0.0 mm
12:50 AM 35.8°F2.1°C 25.5°F-3.6°C 66% 8.7 mph SE14.0 kmh SE 15.9 mph25.6 kmh 30.16 in1021.3 mb 0.00 in0.0 mm 0.00 in0.0 mm 0.00 in0.0 mm
12:45 AM 35.8°F2.1°C 25.5°F-3.6°C 66% 8.3 mph E13.4 kmh E 13.0 mph20.9 kmh 30.16 in1021.3 mb 0.00 in0.0 mm 0.00 in0.0 mm 0.00 in0.0 mm
12:40 AM 35.8°F2.1°C 25.5°F-3.6°C 66% 8.6 mph E13.8 kmh E 14.5 mph23.3 kmh 30.16 in1021.3 mb 0.00 in0.0 mm 0.00 in0.0 mm 0.00 in0.0 mm
12:35 AM 35.8°F2.1°C 25.5°F-3.6°C 66% 9.6 mph ESE15.4 kmh ESE 15.2 mph24.5 kmh 30.16 in1021.3 mb 0.00 in0.0 mm 0.00 in0.0 mm 0.00 in0.0 mm
12:30 AM 35.8°F2.1°C 25.5°F-3.6°C 66% 9.7 mph SE15.6 kmh SE 15.2 mph24.5 kmh 30.16 in1021.3 mb 0.00 in0.0 mm 0.00 in0.0 mm 0.00 in0.0 mm
12:25 AM 35.8°F2.1°C 25.5°F-3.6°C 66% 8.7 mph E14.0 kmh E 13.6 mph21.9 kmh 30.16 in1021.3 mb 0.00 in0.0 mm 0.00 in0.0 mm 0.00 in0.0 mm
12:20 AM 35.8°F2.1°C 25.5°F-3.6°C 66% 9.3 mph E15.0 kmh E 22.1 mph35.6 kmh 30.16 in1021.3 mb 0.00 in0.0 mm 0.00 in0.0 mm 0.00 in0.0 mm
12:15 AM 35.8°F2.1°C 25.5°F-3.6°C 66% 9.9 mph ESE15.9 kmh ESE 22.1 mph35.6 kmh 30.16 in1021.3 mb 0.00 in0.0 mm 0.00 in0.0 mm 0.00 in0.0 mm
12:10 AM 35.8°F2.1°C 25.5°F-3.6°C 66% 9.7 mph E15.6 kmh E 16.8 mph27.0 kmh 30.16 in1021.3 mb 0.00 in0.0 mm 0.00 in0.0 mm 0.00 in0.0 mm
12:05 AM 35.8°F2.1°C 25.5°F-3.6°C 66% 9.7 mph ESE15.6 kmh ESE 16.8 mph27.0 kmh 30.16 in1021.3 mb 0.00 in0.0 mm 0.00 in0.0 mm 0.00 in0.0 mm
12:00 AM 35.8°F2.1°C 25.5°F-3.6°C 66% 9.1 mph NE14.6 kmh NE 16.8 mph27.0 kmh 30.16 in1021.3 mb 0.00 in0.0 mm 0.00 in0.0 mm 0.00 in0.0 mm